createdAt,value
2018-03-03T00:01:43.742Z,-1.05
2018-03-03T00:04:11.285Z,-1.53
2018-03-03T00:06:38.857Z,-1.11
2018-03-03T00:09:06.394Z,-1.07
2018-03-03T00:11:33.952Z,-1.24
2018-03-03T00:14:01.491Z,-1.05
2018-03-03T00:16:29.059Z,-1.24
2018-03-03T00:18:56.596Z,-1.07
2018-03-03T00:21:24.148Z,-0.95
2018-03-03T00:23:52.098Z,-1.01
2018-03-03T00:26:19.676Z,-1.13
2018-03-03T00:28:47.256Z,-1.57
2018-03-03T00:31:14.791Z,-1.37
2018-03-03T00:33:42.357Z,-1.26
2018-03-03T00:36:10.367Z,-1.22
2018-03-03T00:38:37.967Z,-1.41
2018-03-03T00:41:05.493Z,-1.55
2018-03-03T00:43:33.051Z,-1.35
2018-03-03T00:46:00.634Z,-1.28
2018-03-03T00:48:28.178Z,-1.29
2018-03-03T00:50:55.745Z,-1.40
2018-03-03T00:53:23.302Z,-1.34
2018-03-03T00:55:50.870Z,-1.30
2018-03-03T00:58:18.413Z,-1.60
2018-03-03T01:00:45.994Z,-1.59
2018-03-03T01:03:13.540Z,-1.62
2018-03-03T01:05:41.132Z,-1.38
2018-03-03T01:08:08.715Z,-1.50
2018-03-03T01:10:36.256Z,-1.46
2018-03-03T01:13:03.812Z,-1.52
2018-03-03T01:15:31.349Z,-1.52
2018-03-03T01:17:58.950Z,-1.67
2018-03-03T01:20:26.583Z,-1.68
2018-03-03T01:22:54.157Z,-1.82
2018-03-03T01:25:21.687Z,-1.53
2018-03-03T01:27:49.263Z,-1.57
2018-03-03T01:30:16.816Z,-1.57
2018-03-03T01:32:44.386Z,-1.67
2018-03-03T01:35:11.930Z,-1.49
2018-03-03T01:37:39.471Z,-1.46
2018-03-03T01:40:07.060Z,-1.51
2018-03-03T01:42:34.623Z,-1.60
2018-03-03T01:45:02.185Z,-1.46
2018-03-03T01:47:29.720Z,-1.59
2018-03-03T01:49:57.299Z,-1.37
2018-03-03T01:52:24.839Z,-1.34
2018-03-03T01:54:52.417Z,-1.43
2018-03-03T01:57:19.957Z,-1.43
2018-03-03T01:59:47.548Z,-1.36
2018-03-03T02:02:15.093Z,-1.45
2018-03-03T02:04:42.622Z,-1.55
2018-03-03T02:07:10.964Z,-1.55
2018-03-03T02:09:38.505Z,-1.66
2018-03-03T02:12:06.084Z,-1.44
2018-03-03T02:14:33.630Z,-1.61
2018-03-03T02:17:01.189Z,-1.64
2018-03-03T02:19:28.711Z,-1.29
2018-03-03T02:21:56.291Z,-1.34
2018-03-03T02:24:23.812Z,-1.22
2018-03-03T02:26:51.416Z,-1.19
2018-03-03T02:29:18.950Z,-1.33
2018-03-03T02:31:46.480Z,-1.24
2018-03-03T02:34:14.575Z,-1.66
2018-03-03T02:36:42.125Z,-1.51
2018-03-03T02:39:09.704Z,-1.61
2018-03-03T02:41:37.250Z,-1.42
2018-03-03T02:44:04.849Z,-1.47
2018-03-03T02:46:32.377Z,-1.34
2018-03-03T02:48:59.948Z,-1.35
2018-03-03T02:51:27.492Z,-1.29
2018-03-03T02:53:55.061Z,-1.32
2018-03-03T02:56:22.609Z,-1.61
2018-03-03T02:58:50.205Z,-1.47
2018-03-03T03:01:17.737Z,-1.46
2018-03-03T03:03:45.299Z,-1.51
2018-03-03T03:06:12.878Z,-1.34
2018-03-03T03:08:40.411Z,-1.22
2018-03-03T03:11:07.985Z,-1.20
2018-03-03T03:13:35.526Z,-1.46
2018-03-03T03:16:03.097Z,-1.42
2018-03-03T03:18:30.640Z,-1.45
2018-03-03T03:20:58.216Z,-1.22
2018-03-03T03:23:25.845Z,-1.37
2018-03-03T03:25:53.417Z,-1.36
2018-03-03T03:28:20.951Z,-1.36
2018-03-03T03:30:48.541Z,-1.50
2018-03-03T03:33:16.077Z,-1.51
2018-03-03T03:35:44.493Z,-1.41
2018-03-03T03:38:12.244Z,-1.46
2018-03-03T03:40:39.786Z,-1.40
2018-03-03T03:43:07.356Z,-1.32
2018-03-03T03:45:34.888Z,-1.41
2018-03-03T03:48:02.493Z,-1.57
2018-03-03T03:50:30.020Z,-1.45
2018-03-03T03:52:57.599Z,-1.46
2018-03-03T03:55:25.151Z,-1.58
2018-03-03T03:57:52.703Z,-1.65
2018-03-03T04:00:20.264Z,-1.60
2018-03-03T04:02:47.812Z,-1.85
2018-03-03T04:05:15.375Z,-1.67
2018-03-03T04:07:42.913Z,-1.72
2018-03-03T04:10:10.478Z,-1.60
2018-03-03T04:12:38.013Z,-1.59
2018-03-03T04:15:05.602Z,-1.72
2018-03-03T04:17:33.164Z,-1.59
2018-03-03T04:20:00.720Z,-1.63
2018-03-03T04:22:28.289Z,-1.44
2018-03-03T04:24:55.819Z,-1.54
2018-03-03T04:27:23.403Z,-1.52
2018-03-03T04:29:50.931Z,-1.53
2018-03-03T04:32:18.569Z,-1.50
2018-03-03T04:34:46.122Z,-1.54
2018-03-03T04:37:13.763Z,-1.50
2018-03-03T04:39:41.300Z,-1.50
2018-03-03T04:42:08.829Z,-1.51
2018-03-03T04:44:36.393Z,-1.46
2018-03-03T04:47:03.947Z,-1.54
2018-03-03T04:49:31.523Z,-1.46
2018-03-03T04:51:59.059Z,-1.52
2018-03-03T04:54:26.627Z,-1.75
2018-03-03T04:56:54.171Z,-1.54
2018-03-03T05:02:37.010Z,-1.48
2018-03-03T05:05:07.999Z,-1.53
2018-03-03T05:07:37.352Z,-1.49
2018-03-03T05:10:04.954Z,-1.43
2018-03-03T05:12:34.916Z,-1.58
2018-03-03T05:15:08.007Z,-1.56
2018-03-03T05:17:41.241Z,-1.64
2018-03-03T05:23:16.002Z,-1.42
2018-03-03T05:25:49.226Z,-1.53
2018-03-03T05:31:22.176Z,-1.47
2018-03-03T05:36:55.109Z,-1.62
2018-03-03T05:39:28.205Z,-1.65
2018-03-03T05:45:10.241Z,-1.81
2018-03-03T05:47:38.320Z,-1.64
2018-03-03T05:50:11.465Z,-1.72
2018-03-03T05:52:44.451Z,-1.60
2018-03-03T05:55:17.677Z,-1.62
2018-03-03T05:57:51.528Z,-2.04
2018-03-03T06:03:27.540Z,-1.67
2018-03-03T06:06:08.884Z,-1.72
2018-03-03T06:08:42.090Z,-1.67
2018-03-03T06:11:09.644Z,-1.57
2018-03-03T06:13:37.217Z,-1.53
2018-03-03T06:16:04.786Z,-1.82
2018-03-03T06:18:32.395Z,-1.60
2018-03-03T06:20:59.929Z,-1.41
2018-03-03T06:23:27.500Z,-1.41
2018-03-03T06:25:55.035Z,-1.57
2018-03-03T06:28:22.556Z,-1.66
2018-03-03T06:30:50.109Z,-1.74
2018-03-03T06:33:17.718Z,-1.59
2018-03-03T06:35:46.045Z,-1.39
2018-03-03T06:38:13.576Z,-1.44
2018-03-03T06:40:41.155Z,-1.40
2018-03-03T06:43:08.695Z,-1.34
2018-03-03T06:45:36.276Z,-1.52
2018-03-03T06:48:03.862Z,-1.37
2018-03-03T06:50:31.440Z,-1.34
2018-03-03T06:52:59.037Z,-1.53
2018-03-03T06:55:26.596Z,-1.42
2018-03-03T06:57:54.190Z,-1.37
2018-03-03T07:00:21.720Z,-1.42
2018-03-03T07:02:49.312Z,-1.29
2018-03-03T07:05:16.875Z,-1.23
2018-03-03T07:07:45.062Z,-1.22
2018-03-03T07:10:12.906Z,-1.33
2018-03-03T07:12:40.679Z,-1.36
2018-03-03T07:15:08.388Z,-1.50
2018-03-03T07:17:35.936Z,-1.46
2018-03-03T07:20:03.500Z,-1.27
2018-03-03T07:22:31.075Z,-1.33
2018-03-03T07:24:58.677Z,-1.05
2018-03-03T07:27:26.209Z,-1.01
2018-03-03T07:29:53.788Z,-1.20
2018-03-03T07:32:21.310Z,-1.13
2018-03-03T07:34:48.834Z,-0.98
2018-03-03T07:37:16.400Z,-1.01
2018-03-03T07:39:43.945Z,-1.16
2018-03-03T07:42:11.526Z,-0.93
2018-03-03T07:44:39.053Z,-0.84
2018-03-03T07:47:06.628Z,-0.89
2018-03-03T07:49:34.156Z,-0.95
2018-03-03T07:52:01.741Z,-0.82
2018-03-03T07:54:29.278Z,-0.91
2018-03-03T07:57:08.656Z,-0.94
2018-03-03T07:59:36.256Z,-0.73
2018-03-03T08:02:03.772Z,-0.83
2018-03-03T08:04:31.336Z,-0.78
2018-03-03T08:06:59.051Z,-0.39
2018-03-03T08:09:26.729Z,-0.69
2018-03-03T08:11:54.149Z,-0.70
2018-03-03T08:14:21.707Z,-0.49
2018-03-03T08:16:49.256Z,-0.44
2018-03-03T08:19:16.829Z,-0.36
2018-03-03T08:21:44.379Z,-0.19
2018-03-03T08:24:11.938Z,-0.53
2018-03-03T08:26:39.503Z,-0.52
2018-03-03T08:29:07.909Z,-0.37
2018-03-03T08:31:35.600Z,-0.10
2018-03-03T08:34:03.180Z,-0.22
2018-03-03T08:36:30.756Z,-0.37
2018-03-03T08:38:58.405Z,-0.35
2018-03-03T08:41:28.062Z,-0.66
2018-03-03T08:43:55.705Z,-0.33
2018-03-03T08:46:23.245Z,-0.13
2018-03-03T08:48:53.230Z,-0.24
2018-03-03T08:51:21.347Z,-0.41
2018-03-03T08:53:49.320Z,-0.36
2018-03-03T08:56:17.368Z,-0.24
2018-03-03T08:58:45.505Z,-0.27
2018-03-03T09:01:13.149Z,-0.18
2018-03-03T09:03:41.105Z,-0.32
2018-03-03T09:06:09.107Z,-0.39
2018-03-03T09:08:36.690Z,-0.29
2018-03-03T09:11:04.260Z,-0.10
2018-03-03T09:13:31.809Z,0.20
2018-03-03T09:15:59.367Z,0.07
2018-03-03T09:18:26.896Z,0.18
2018-03-03T09:20:54.452Z,-0.13
2018-03-03T09:23:22.313Z,-0.18
2018-03-03T09:25:49.951Z,-0.01
2018-03-03T09:28:17.565Z,0.13
2018-03-03T09:30:45.091Z,0.06
2018-03-03T09:33:12.813Z,0.07
2018-03-03T09:35:40.345Z,0.02
2018-03-03T09:38:07.934Z,-0.01
2018-03-03T09:40:35.470Z,0.11
2018-03-03T09:43:03.035Z,0.29
2018-03-03T09:45:30.571Z,0.16
2018-03-03T09:47:58.173Z,0.46
2018-03-03T09:50:25.725Z,0.50
2018-03-03T09:52:53.296Z,0.64
2018-03-03T09:55:20.823Z,0.44
2018-03-03T09:57:48.349Z,0.75
2018-03-03T10:00:15.987Z,0.92
2018-03-03T10:02:43.543Z,1.01
2018-03-03T10:05:13.667Z,1.04
2018-03-03T10:07:41.212Z,0.99
2018-03-03T10:10:08.818Z,0.99
2018-03-03T10:12:36.872Z,1.08
2018-03-03T10:15:05.120Z,0.97
2018-03-03T10:17:33.982Z,1.04
2018-03-03T10:20:08.060Z,1.01
2018-03-03T10:22:35.864Z,1.15
2018-03-03T10:25:07.955Z,1.27
2018-03-03T10:27:42.080Z,1.06
2018-03-03T10:30:13.208Z,1.09
2018-03-03T10:32:43.163Z,1.23
2018-03-03T10:35:12.930Z,0.89
2018-03-03T10:37:40.918Z,0.89
2018-03-03T10:40:08.471Z,1.07
2018-03-03T10:42:36.048Z,1.06
2018-03-03T10:45:04.884Z,1.41
2018-03-03T10:47:32.649Z,1.44
2018-03-03T10:50:11.619Z,1.13
2018-03-03T10:52:39.183Z,1.58
2018-03-03T10:55:06.730Z,1.69
2018-03-03T10:57:35.531Z,2.02
2018-03-03T11:00:03.383Z,1.66
2018-03-03T11:02:31.774Z,1.68
2018-03-03T11:04:59.859Z,1.79
2018-03-03T11:07:27.618Z,2.06
2018-03-03T11:09:55.388Z,2.01
2018-03-03T11:12:22.947Z,2.24
2018-03-03T11:14:50.601Z,2.15
2018-03-03T11:17:18.319Z,2.38
2018-03-03T11:19:46.352Z,2.52
2018-03-03T11:22:13.894Z,2.35
2018-03-03T11:24:41.985Z,2.35
2018-03-03T11:27:09.680Z,2.35
2018-03-03T11:29:37.377Z,2.69
2018-03-03T11:32:04.909Z,2.57
2018-03-03T11:34:32.445Z,2.65
2018-03-03T11:37:00.024Z,2.92
2018-03-03T11:39:31.202Z,2.33
2018-03-03T11:41:59.109Z,2.53
2018-03-03T11:44:26.983Z,2.85
2018-03-03T11:46:54.572Z,2.91
2018-03-03T11:49:22.095Z,2.87
2018-03-03T11:51:49.650Z,2.36
2018-03-03T11:54:17.187Z,2.42
2018-03-03T11:56:44.956Z,2.74
2018-03-03T11:59:12.986Z,2.94
2018-03-03T12:01:40.556Z,2.97
2018-03-03T12:04:08.112Z,3.08
2018-03-03T12:06:35.651Z,3.09
2018-03-03T12:09:03.237Z,3.16
2018-03-03T12:11:31.019Z,3.26
2018-03-03T12:13:58.577Z,3.54
2018-03-03T12:16:26.113Z,2.88
2018-03-03T12:18:53.681Z,3.39
2018-03-03T12:21:21.206Z,3.46
2018-03-03T12:23:48.787Z,3.19
2018-03-03T12:26:16.303Z,2.61
2018-03-03T12:28:43.868Z,2.63
2018-03-03T12:31:11.463Z,2.74
2018-03-03T12:33:38.991Z,2.88
2018-03-03T12:36:06.549Z,2.93
2018-03-03T12:38:34.068Z,2.79
2018-03-03T12:41:01.683Z,3.03
2018-03-03T12:43:29.223Z,2.87
2018-03-03T12:45:56.804Z,2.71
2018-03-03T12:48:24.330Z,3.01
2018-03-03T12:50:51.923Z,3.00
2018-03-03T12:53:19.446Z,3.08
2018-03-03T12:55:46.970Z,2.93
2018-03-03T12:58:14.524Z,3.03
2018-03-03T13:00:42.055Z,3.36
2018-03-03T13:03:09.606Z,3.36
2018-03-03T13:05:37.132Z,3.38
2018-03-03T13:08:04.686Z,3.72
2018-03-03T13:10:32.209Z,3.42
2018-03-03T13:12:59.780Z,3.44
2018-03-03T13:15:27.307Z,3.24
2018-03-03T13:17:54.835Z,3.40
2018-03-03T13:20:22.392Z,3.90
2018-03-03T13:22:49.918Z,3.37
2018-03-03T13:25:17.479Z,3.37
2018-03-03T13:27:44.999Z,3.90
2018-03-03T13:30:12.574Z,3.78
2018-03-03T13:32:40.097Z,3.44
2018-03-03T13:35:07.675Z,3.78
2018-03-03T13:37:35.196Z,3.56
2018-03-03T13:40:02.716Z,3.50
2018-03-03T13:42:30.276Z,2.89
2018-03-03T13:44:57.812Z,3.26
2018-03-03T13:47:25.388Z,3.06
2018-03-03T13:49:52.922Z,3.05
2018-03-03T13:52:20.487Z,3.40
2018-03-03T13:54:48.609Z,3.16
2018-03-03T13:57:16.191Z,2.92
2018-03-03T13:59:43.724Z,3.02
2018-03-03T14:02:11.255Z,3.14
2018-03-03T14:04:38.860Z,3.28
2018-03-03T14:07:06.392Z,2.82
2018-03-03T14:09:33.961Z,3.03
2018-03-03T14:12:01.490Z,2.98
2018-03-03T14:14:29.053Z,3.03
2018-03-03T14:16:56.589Z,2.97
2018-03-03T14:19:24.156Z,2.90
2018-03-03T14:21:51.704Z,3.35
2018-03-03T14:24:19.619Z,3.42
2018-03-03T14:26:47.176Z,3.13
2018-03-03T14:29:14.757Z,3.22
2018-03-03T14:31:42.283Z,3.17
2018-03-03T14:34:09.846Z,3.30
2018-03-03T14:36:37.404Z,3.05
2018-03-03T14:39:04.975Z,3.32
2018-03-03T14:41:32.547Z,2.98
2018-03-03T14:44:00.093Z,3.18
2018-03-03T14:46:29.433Z,3.31
2018-03-03T14:48:56.991Z,3.36
2018-03-03T14:51:24.524Z,3.35
2018-03-03T14:53:52.098Z,3.44
2018-03-03T14:56:19.746Z,3.23
2018-03-03T14:58:47.353Z,3.43
2018-03-03T15:01:14.909Z,3.01
2018-03-03T15:03:42.481Z,2.91
2018-03-03T15:06:10.017Z,2.78
2018-03-03T15:08:37.597Z,3.02
2018-03-03T15:11:05.118Z,3.17
2018-03-03T15:13:32.759Z,3.28
2018-03-03T15:16:00.270Z,3.22
2018-03-03T15:18:27.800Z,3.26
2018-03-03T15:20:55.362Z,3.24
2018-03-03T15:23:22.887Z,3.02
2018-03-03T15:25:50.628Z,3.37
2018-03-03T15:28:18.183Z,3.35
2018-03-03T15:30:45.743Z,3.36
2018-03-03T15:33:14.955Z,3.12
2018-03-03T15:35:42.528Z,3.14
2018-03-03T15:38:10.085Z,3.02
2018-03-03T15:40:41.542Z,3.14
2018-03-03T15:43:09.242Z,3.09
2018-03-03T15:45:36.775Z,3.16
2018-03-03T15:48:05.682Z,3.14
2018-03-03T15:50:33.212Z,3.15
2018-03-03T15:53:00.770Z,3.15
2018-03-03T15:55:28.306Z,3.19
2018-03-03T15:57:55.961Z,3.11
2018-03-03T16:00:23.684Z,3.12
2018-03-03T16:02:52.464Z,3.17
2018-03-03T16:05:20.756Z,3.22
2018-03-03T16:07:48.291Z,3.17
2018-03-03T16:10:16.290Z,2.98
2018-03-03T16:12:44.078Z,3.00
2018-03-03T16:15:11.640Z,2.94
2018-03-03T16:17:39.155Z,3.00
2018-03-03T16:20:06.732Z,2.96
2018-03-03T16:22:34.260Z,2.79
2018-03-03T16:25:01.839Z,2.95
2018-03-03T16:27:29.390Z,2.59
2018-03-03T16:29:56.967Z,2.68
2018-03-03T16:32:24.511Z,2.79
2018-03-03T16:34:52.068Z,2.94
2018-03-03T16:37:19.600Z,2.36
2018-03-03T16:39:47.188Z,2.50
2018-03-03T16:42:14.746Z,2.36
2018-03-03T16:44:42.309Z,2.49
2018-03-03T16:47:10.795Z,2.56
2018-03-03T16:49:38.889Z,2.46
2018-03-03T16:52:06.909Z,2.39
2018-03-03T16:54:35.259Z,2.27
2018-03-03T16:57:03.391Z,2.40
2018-03-03T16:59:31.880Z,2.52
2018-03-03T17:01:59.929Z,2.46
2018-03-03T17:04:27.483Z,2.48
2018-03-03T17:06:55.038Z,2.08
2018-03-03T17:09:22.603Z,2.10
2018-03-03T17:11:50.147Z,2.18
2018-03-03T17:14:18.233Z,1.85
2018-03-03T17:16:45.800Z,2.11
2018-03-03T17:19:14.592Z,2.16
2018-03-03T17:21:42.205Z,2.21
2018-03-03T17:24:09.767Z,2.19
2018-03-03T17:26:37.384Z,2.37
2018-03-03T17:29:05.028Z,2.38
2018-03-03T17:31:32.860Z,2.44
2018-03-03T17:34:00.581Z,2.64
2018-03-03T17:36:28.725Z,2.59
2018-03-03T17:38:56.381Z,2.60
2018-03-03T17:41:24.228Z,2.57
2018-03-03T17:43:51.818Z,2.49
2018-03-03T17:46:19.414Z,2.55
2018-03-03T17:48:46.971Z,2.52
2018-03-03T17:51:14.539Z,2.62
2018-03-03T17:53:42.111Z,2.58
2018-03-03T17:56:09.689Z,2.42
2018-03-03T17:58:37.641Z,2.40
2018-03-03T18:01:05.227Z,2.17
2018-03-03T18:03:32.779Z,2.30
2018-03-03T18:06:00.341Z,2.52
2018-03-03T18:08:27.889Z,2.47
2018-03-03T18:10:55.429Z,2.39
2018-03-03T18:13:32.373Z,2.42
2018-03-03T18:15:59.901Z,2.48
2018-03-03T18:18:31.018Z,2.43
2018-03-03T18:20:58.548Z,2.34
2018-03-03T18:23:26.112Z,2.19
2018-03-03T18:25:53.649Z,1.97
2018-03-03T18:28:21.564Z,2.23
2018-03-03T18:30:49.109Z,2.14
2018-03-03T18:33:17.947Z,2.14
2018-03-03T18:35:45.520Z,1.95
2018-03-03T18:38:13.210Z,2.18
2018-03-03T18:40:40.795Z,1.97
2018-03-03T18:43:08.385Z,1.78
2018-03-03T18:45:35.937Z,1.72
2018-03-03T18:48:03.496Z,2.08
2018-03-03T18:50:31.023Z,2.07
2018-03-03T18:53:01.693Z,2.16
2018-03-03T18:55:29.426Z,2.01
2018-03-03T18:57:59.472Z,2.14
2018-03-03T19:00:27.227Z,2.21
2018-03-03T19:02:54.772Z,2.16
2018-03-03T19:05:22.328Z,2.15
2018-03-03T19:07:49.866Z,2.15
2018-03-03T19:10:17.438Z,2.27
2018-03-03T19:12:44.959Z,1.98
2018-03-03T19:15:12.516Z,1.97
2018-03-03T19:17:40.051Z,2.14
2018-03-03T19:20:07.593Z,2.09
2018-03-03T19:22:35.168Z,1.98
2018-03-03T19:25:03.707Z,2.09
2018-03-03T19:27:31.307Z,2.10
2018-03-03T19:29:58.827Z,2.12
2018-03-03T19:32:26.407Z,2.01
2018-03-03T19:34:53.940Z,2.10
2018-03-03T19:37:21.953Z,2.11
2018-03-03T19:39:49.470Z,1.92
2018-03-03T19:42:18.488Z,1.63
2018-03-03T19:44:47.698Z,1.72
2018-03-03T19:47:15.272Z,1.69
2018-03-03T19:49:42.846Z,1.96
2018-03-03T19:52:10.804Z,1.77
2018-03-03T19:54:39.384Z,1.81
2018-03-03T19:57:06.980Z,1.87
2018-03-03T19:59:34.553Z,1.66
2018-03-03T20:02:04.055Z,2.01
2018-03-03T20:04:31.839Z,2.12
2018-03-03T20:06:59.365Z,2.18
2018-03-03T20:09:26.891Z,2.15
2018-03-03T20:11:54.471Z,2.25
2018-03-03T20:14:22.274Z,2.11
2018-03-03T20:16:49.848Z,1.87
2018-03-03T20:19:17.395Z,1.91
2018-03-03T20:21:44.981Z,1.95
2018-03-03T20:24:12.508Z,2.10
2018-03-03T20:26:40.036Z,2.11
2018-03-03T20:29:07.599Z,2.23
2018-03-03T20:31:35.155Z,2.28
2018-03-03T20:34:02.711Z,2.16
2018-03-03T20:36:30.264Z,2.27
2018-03-03T20:38:57.843Z,2.31
2018-03-03T20:41:25.372Z,2.24
2018-03-03T20:43:52.978Z,2.10
2018-03-03T20:46:23.338Z,2.16
2018-03-03T20:48:51.073Z,2.20
2018-03-03T20:51:18.591Z,2.27
2018-03-03T20:53:49.384Z,2.31
2018-03-03T20:56:17.063Z,2.22
2018-03-03T20:58:44.583Z,2.25
2018-03-03T21:01:12.175Z,2.25
2018-03-03T21:03:39.791Z,2.25
2018-03-03T21:06:07.372Z,2.19
2018-03-03T21:08:34.900Z,2.22
2018-03-03T21:11:02.477Z,2.20
2018-03-03T21:13:33.443Z,2.24
2018-03-03T21:16:04.998Z,2.02
2018-03-03T21:18:32.712Z,2.14
2018-03-03T21:21:00.262Z,2.31
2018-03-03T21:23:27.799Z,2.34
2018-03-03T21:25:55.399Z,2.21
2018-03-03T21:28:22.999Z,2.21
2018-03-03T21:30:50.564Z,2.22
2018-03-03T21:33:18.121Z,2.17
2018-03-03T21:35:45.692Z,2.13
2018-03-03T21:38:13.219Z,2.20
2018-03-03T21:40:43.575Z,2.20
2018-03-03T21:43:11.593Z,2.16
2018-03-03T21:45:39.191Z,2.17
2018-03-03T21:48:09.457Z,2.19
2018-03-03T21:50:39.697Z,2.10
2018-03-03T21:53:08.035Z,2.10
2018-03-03T21:55:41.560Z,2.08
2018-03-03T21:58:10.396Z,2.18
2018-03-03T22:00:38.521Z,2.12
2018-03-03T22:03:06.052Z,1.93
2018-03-03T22:05:33.800Z,1.98
2018-03-03T22:08:02.554Z,1.90
2018-03-03T22:10:33.065Z,1.81
2018-03-03T22:13:04.991Z,1.99
2018-03-03T22:15:35.315Z,2.02
2018-03-03T22:18:05.653Z,2.04
2018-03-03T22:20:34.861Z,1.82
2018-03-03T22:23:04.225Z,1.74
2018-03-03T22:25:32.808Z,1.79
2018-03-03T22:28:00.621Z,1.74
2018-03-03T22:30:29.771Z,1.98
2018-03-03T22:32:58.224Z,2.00
2018-03-03T22:35:26.664Z,1.90
2018-03-03T22:37:57.031Z,2.08
2018-03-03T22:40:25.647Z,2.11
2018-03-03T22:42:54.410Z,2.11
2018-03-03T22:45:22.215Z,2.10
2018-03-03T22:47:51.165Z,1.92
2018-03-03T22:50:21.179Z,1.91
2018-03-03T22:52:49.065Z,2.12
2018-03-03T22:55:17.058Z,1.95
2018-03-03T22:57:45.069Z,1.92
2018-03-03T23:00:12.705Z,2.11
2018-03-03T23:02:40.445Z,2.19
2018-03-03T23:05:08.884Z,2.23
2018-03-03T23:07:37.371Z,2.08
2018-03-03T23:10:05.438Z,1.91
2018-03-03T23:12:33.060Z,2.10
2018-03-03T23:15:02.230Z,1.81
2018-03-03T23:17:30.216Z,1.91
2018-03-03T23:19:58.868Z,1.74
2018-03-03T23:22:27.922Z,2.07
2018-03-03T23:24:55.450Z,2.19
2018-03-03T23:27:23.280Z,2.34
2018-03-03T23:29:50.808Z,2.13
2018-03-03T23:32:18.378Z,2.19
2018-03-03T23:34:45.908Z,2.12
2018-03-03T23:37:13.484Z,2.21
2018-03-03T23:39:41.032Z,2.15
2018-03-03T23:42:08.572Z,2.24
2018-03-03T23:44:36.488Z,2.19
2018-03-03T23:47:04.042Z,2.25
2018-03-03T23:49:31.621Z,2.24
2018-03-03T23:51:59.176Z,2.28
2018-03-03T23:54:26.752Z,2.25
2018-03-03T23:56:54.395Z,2.31
2018-03-03T23:59:21.966Z,2.09
